sensor_id;sensor_type;location;lat;lon;timestamp;temperature;humidity
39277;DHT22;63149;48.086;-1.606;2023-08-07T05:02:34;12.60;99.90
39277;DHT22;63149;48.086;-1.606;2023-08-07T05:05:01;12.60;99.90
39277;DHT22;63149;48.086;-1.606;2023-08-07T05:07:28;12.60;99.90
39277;DHT22;63149;48.086;-1.606;2023-08-07T05:09:55;12.60;99.90
39277;DHT22;63149;48.086;-1.606;2023-08-07T05:12:22;12.50;99.90
39277;DHT22;63149;48.086;-1.606;2023-08-07T05:14:49;12.50;99.90
39277;DHT22;63149;48.086;-1.606;2023-08-07T05:17:16;12.50;99.90
39277;DHT22;63149;48.086;-1.606;2023-08-07T05:19:44;12.50;99.90
39277;DHT22;63149;48.086;-1.606;2023-08-07T05:22:11;12.50;99.90
39277;DHT22;63149;48.086;-1.606;2023-08-07T05:24:38;12.50;99.90
39277;DHT22;63149;48.086;-1.606;2023-08-07T05:27:06;12.50;99.90
39277;DHT22;63149;48.086;-1.606;2023-08-07T05:29:34;12.50;99.90
39277;DHT22;63149;48.086;-1.606;2023-08-07T05:32:08;12.50;99.90
39277;DHT22;63149;48.086;-1.606;2023-08-07T05:34:35;12.50;99.90
39277;DHT22;63149;48.086;-1.606;2023-08-07T05:37:04;12.50;99.90
39277;DHT22;63149;48.086;-1.606;2023-08-07T05:39:31;12.50;99.90
39277;DHT22;63149;48.086;-1.606;2023-08-07T05:41:58;12.60;99.90
39277;DHT22;63149;48.086;-1.606;2023-08-07T05:44:25;12.60;99.90
39277;DHT22;63149;48.086;-1.606;2023-08-07T05:46:52;12.60;99.90
39277;DHT22;63149;48.086;-1.606;2023-08-07T05:49:19;12.60;99.90
39277;DHT22;63149;48.086;-1.606;2023-08-07T05:51:46;12.60;99.90
39277;DHT22;63149;48.086;-1.606;2023-08-07T05:54:15;12.60;99.90
39277;DHT22;63149;48.086;-1.606;2023-08-07T05:56:42;12.60;99.90
39277;DHT22;63149;48.086;-1.606;2023-08-07T05:59:09;12.60;99.90
39277;DHT22;63149;48.086;-1.606;2023-08-07T06:01:36;12.70;99.90
39277;DHT22;63149;48.086;-1.606;2023-08-07T06:04:03;12.60;99.90
39277;DHT22;63149;48.086;-1.606;2023-08-07T06:06:30;12.70;99.90
39277;DHT22;63149;48.086;-1.606;2023-08-07T06:09:00;12.70;99.90
39277;DHT22;63149;48.086;-1.606;2023-08-07T06:11:29;12.70;99.90
39277;DHT22;63149;48.086;-1.606;2023-08-07T06:13:56;12.70;99.90
39277;DHT22;63149;48.086;-1.606;2023-08-07T06:16:23;12.80;99.90
39277;DHT22;63149;48.086;-1.606;2023-08-07T06:18:50;12.80;99.90
39277;DHT22;63149;48.086;-1.606;2023-08-07T06:21:17;12.80;99.90
39277;DHT22;63149;48.086;-1.606;2023-08-07T06:23:45;12.90;99.90
39277;DHT22;63149;48.086;-1.606;2023-08-07T06:26:12;12.90;99.90
39277;DHT22;63149;48.086;-1.606;2023-08-07T06:28:41;13.00;99.90
39277;DHT22;63149;48.086;-1.606;2023-08-07T06:31:09;13.00;99.90
39277;DHT22;63149;48.086;-1.606;2023-08-07T06:33:37;13.00;99.90
39277;DHT22;63149;48.086;-1.606;2023-08-07T06:36:04;13.10;99.90
39277;DHT22;63149;48.086;-1.606;2023-08-07T06:38:31;13.20;99.90
39277;DHT22;63149;48.086;-1.606;2023-08-07T06:40:58;13.30;99.90
39277;DHT22;63149;48.086;-1.606;2023-08-07T06:43:25;13.30;99.90
39277;DHT22;63149;48.086;-1.606;2023-08-07T06:45:55;13.40;99.90
39277;DHT22;63149;48.086;-1.606;2023-08-07T06:48:22;13.50;99.90
39277;DHT22;63149;48.086;-1.606;2023-08-07T06:50:49;13.60;99.90
39277;DHT22;63149;48.086;-1.606;2023-08-07T06:53:17;13.70;99.90
39277;DHT22;63149;48.086;-1.606;2023-08-07T06:55:44;13.70;99.90
39277;DHT22;63149;48.086;-1.606;2023-08-07T06:58:11;13.80;99.90
39277;DHT22;63149;48.086;-1.606;2023-08-07T07:00:38;13.90;99.90
39277;DHT22;63149;48.086;-1.606;2023-08-07T07:03:06;14.00;99.90
39277;DHT22;63149;48.086;-1.606;2023-08-07T07:05:35;14.00;99.90
39277;DHT22;63149;48.086;-1.606;2023-08-07T07:08:02;14.10;99.90
39277;DHT22;63149;48.086;-1.606;2023-08-07T07:10:29;14.10;99.90
39277;DHT22;63149;48.086;-1.606;2023-08-07T07:12:56;14.20;99.90
39277;DHT22;63149;48.086;-1.606;2023-08-07T07:15:23;14.20;99.90
39277;DHT22;63149;48.086;-1.606;2023-08-07T07:17:50;14.20;99.90
39277;DHT22;63149;48.086;-1.606;2023-08-07T07:20:18;14.30;99.90
39277;DHT22;63149;48.086;-1.606;2023-08-07T07:22:46;14.40;99.90
39277;DHT22;63149;48.086;-1.606;2023-08-07T07:25:12;14.40;99.90
39277;DHT22;63149;48.086;-1.606;2023-08-07T07:27:39;14.50;99.90
39277;DHT22;63149;48.086;-1.606;2023-08-07T07:30:07;14.50;99.90
39277;DHT22;63149;48.086;-1.606;2023-08-07T07:32:34;14.50;99.90
39277;DHT22;63149;48.086;-1.606;2023-08-07T07:35:01;14.60;99.90
39277;DHT22;63149;48.086;-1.606;2023-08-07T07:37:31;14.60;99.90
39277;DHT22;63149;48.086;-1.606;2023-08-07T07:39:58;14.70;99.90
39277;DHT22;63149;48.086;-1.606;2023-08-07T07:42:25;14.80;99.90
39277;DHT22;63149;48.086;-1.606;2023-08-07T07:44:52;14.80;99.90
39277;DHT22;63149;48.086;-1.606;2023-08-07T07:47:19;14.90;99.90
39277;DHT22;63149;48.086;-1.606;2023-08-07T07:49:47;14.90;99.90
39277;DHT22;63149;48.086;-1.606;2023-08-07T07:52:14;15.00;99.90
39277;DHT22;63149;48.086;-1.606;2023-08-07T07:54:42;15.10;99.90
39277;DHT22;63149;48.086;-1.606;2023-08-07T07:57:09;15.10;99.90
39277;DHT22;63149;48.086;-1.606;2023-08-07T07:59:36;15.20;99.90
39277;DHT22;63149;48.086;-1.606;2023-08-07T08:02:03;15.30;99.90
39277;DHT22;63149;48.086;-1.606;2023-08-07T08:04:30;15.30;99.90
39277;DHT22;63149;48.086;-1.606;2023-08-07T08:06:57;15.40;99.90
39277;DHT22;63149;48.086;-1.606;2023-08-07T08:09:25;15.50;99.90
39277;DHT22;63149;48.086;-1.606;2023-08-07T08:11:54;15.70;99.90
39277;DHT22;63149;48.086;-1.606;2023-08-07T08:14:21;15.80;99.90
39277;DHT22;63149;48.086;-1.606;2023-08-07T08:16:48;16.00;99.90
39277;DHT22;63149;48.086;-1.606;2023-08-07T08:19:15;16.10;99.90
39277;DHT22;63149;48.086;-1.606;2023-08-07T08:21:42;16.20;99.90
39277;DHT22;63149;48.086;-1.606;2023-08-07T08:24:09;16.20;99.90
39277;DHT22;63149;48.086;-1.606;2023-08-07T08:26:36;16.50;99.90
39277;DHT22;63149;48.086;-1.606;2023-08-07T08:29:05;16.60;99.90
39277;DHT22;63149;48.086;-1.606;2023-08-07T08:31:33;16.80;99.90
39277;DHT22;63149;48.086;-1.606;2023-08-07T08:34:00;16.90;99.90
39277;DHT22;63149;48.086;-1.606;2023-08-07T08:36:27;17.10;99.90
39277;DHT22;63149;48.086;-1.606;2023-08-07T08:38:54;17.30;99.90
39277;DHT22;63149;48.086;-1.606;2023-08-07T08:41:21;17.50;99.90
39277;DHT22;63149;48.086;-1.606;2023-08-07T08:43:49;17.50;99.90
39277;DHT22;63149;48.086;-1.606;2023-08-07T08:46:20;17.60;99.90
39277;DHT22;63149;48.086;-1.606;2023-08-07T08:48:51;17.70;99.90
39277;DHT22;63149;48.086;-1.606;2023-08-07T08:51:19;18.10;99.90
39277;DHT22;63149;48.086;-1.606;2023-08-07T08:53:47;18.30;99.90
39277;DHT22;63149;48.086;-1.606;2023-08-07T08:56:15;18.60;99.90
39277;DHT22;63149;48.086;-1.606;2023-08-07T08:58:43;18.80;99.90
39277;DHT22;63149;48.086;-1.606;2023-08-07T09:01:11;18.90;99.90
39277;DHT22;63149;48.086;-1.606;2023-08-07T09:03:40;19.10;99.90
39277;DHT22;63149;48.086;-1.606;2023-08-07T09:06:07;19.30;99.90
39277;DHT22;63149;48.086;-1.606;2023-08-07T09:08:34;19.40;99.90
39277;DHT22;63149;48.086;-1.606;2023-08-07T09:11:02;19.60;99.90
39277;DHT22;63149;48.086;-1.606;2023-08-07T09:13:30;19.70;99.90
39277;DHT22;63149;48.086;-1.606;2023-08-07T09:16:00;19.80;99.90
39277;DHT22;63149;48.086;-1.606;2023-08-07T09:18:28;20.10;99.90
39277;DHT22;63149;48.086;-1.606;2023-08-07T09:20:56;20.20;99.90
39277;DHT22;63149;48.086;-1.606;2023-08-07T09:23:24;20.40;99.90
39277;DHT22;63149;48.086;-1.606;2023-08-07T09:25:59;20.50;99.90
39277;DHT22;63149;48.086;-1.606;2023-08-07T09:28:26;20.70;99.90
39277;DHT22;63149;48.086;-1.606;2023-08-07T09:30:54;20.70;99.90
39277;DHT22;63149;48.086;-1.606;2023-08-07T09:33:24;20.80;99.90
39277;DHT22;63149;48.086;-1.606;2023-08-07T09:35:52;20.80;99.90
39277;DHT22;63149;48.086;-1.606;2023-08-07T09:38:22;20.80;99.90
39277;DHT22;63149;48.086;-1.606;2023-08-07T09:40:49;20.80;99.90
39277;DHT22;63149;48.086;-1.606;2023-08-07T09:43:20;20.80;99.90
39277;DHT22;63149;48.086;-1.606;2023-08-07T09:45:48;20.70;99.90
39277;DHT22;63149;48.086;-1.606;2023-08-07T09:48:23;20.80;99.90
39277;DHT22;63149;48.086;-1.606;2023-08-07T09:50:51;21.00;99.90
39277;DHT22;63149;48.086;-1.606;2023-08-07T09:53:18;21.00;99.90
39277;DHT22;63149;48.086;-1.606;2023-08-07T09:55:46;21.10;99.90
39277;DHT22;63149;48.086;-1.606;2023-08-07T09:58:13;21.20;99.90
39277;DHT22;63149;48.086;-1.606;2023-08-07T10:00:40;21.30;99.90
39277;DHT22;63149;48.086;-1.606;2023-08-07T10:03:08;21.40;99.90
39277;DHT22;63149;48.086;-1.606;2023-08-07T10:05:35;21.60;99.90
39277;DHT22;63149;48.086;-1.606;2023-08-07T10:08:03;21.80;99.90
39277;DHT22;63149;48.086;-1.606;2023-08-07T10:10:32;22.10;99.90
39277;DHT22;63149;48.086;-1.606;2023-08-07T10:13:01;22.30;99.90
39277;DHT22;63149;48.086;-1.606;2023-08-07T10:15:29;22.60;99.90
39277;DHT22;63149;48.086;-1.606;2023-08-07T10:17:57;22.70;99.90
39277;DHT22;63149;48.086;-1.606;2023-08-07T10:20:26;22.60;99.90
39277;DHT22;63149;48.086;-1.606;2023-08-07T10:22:57;22.60;99.90
39277;DHT22;63149;48.086;-1.606;2023-08-07T10:25:27;22.50;99.90
39277;DHT22;63149;48.086;-1.606;2023-08-07T10:27:56;22.50;99.90
39277;DHT22;63149;48.086;-1.606;2023-08-07T10:30:27;22.60;99.90
39277;DHT22;63149;48.086;-1.606;2023-08-07T10:32:57;22.60;99.90
39277;DHT22;63149;48.086;-1.606;2023-08-07T10:35:25;22.60;99.90
39277;DHT22;63149;48.086;-1.606;2023-08-07T10:37:53;22.60;99.90
39277;DHT22;63149;48.086;-1.606;2023-08-07T10:40:20;22.70;99.90
39277;DHT22;63149;48.086;-1.606;2023-08-07T10:42:52;22.70;99.90
39277;DHT22;63149;48.086;-1.606;2023-08-07T10:45:23;22.70;99.90
39277;DHT22;63149;48.086;-1.606;2023-08-07T10:48:05;22.60;99.90
39277;DHT22;63149;48.086;-1.606;2023-08-07T10:50:33;22.80;99.90
39277;DHT22;63149;48.086;-1.606;2023-08-07T10:53:01;22.90;99.90
39277;DHT22;63149;48.086;-1.606;2023-08-07T10:55:31;23.00;99.90
39277;DHT22;63149;48.086;-1.606;2023-08-07T10:58:21;23.10;99.90
39277;DHT22;63149;48.086;-1.606;2023-08-07T11:00:49;23.20;99.90
39277;DHT22;63149;48.086;-1.606;2023-08-07T11:03:26;23.30;99.90
39277;DHT22;63149;48.086;-1.606;2023-08-07T11:05:53;23.40;99.90
39277;DHT22;63149;48.086;-1.606;2023-08-07T11:08:22;23.60;99.90
39277;DHT22;63149;48.086;-1.606;2023-08-07T11:10:50;23.70;99.90
39277;DHT22;63149;48.086;-1.606;2023-08-07T11:13:17;23.80;99.90
39277;DHT22;63149;48.086;-1.606;2023-08-07T11:15:46;24.20;99.90
39277;DHT22;63149;48.086;-1.606;2023-08-07T11:18:13;24.40;99.90
39277;DHT22;63149;48.086;-1.606;2023-08-07T11:20:44;24.60;99.90
39277;DHT22;63149;48.086;-1.606;2023-08-07T11:23:11;24.80;99.90
39277;DHT22;63149;48.086;-1.606;2023-08-07T11:25:38;24.90;99.90
39277;DHT22;63149;48.086;-1.606;2023-08-07T11:28:05;25.10;99.90
39277;DHT22;63149;48.086;-1.606;2023-08-07T11:30:34;25.40;99.90
39277;DHT22;63149;48.086;-1.606;2023-08-07T11:33:01;25.50;99.90
39277;DHT22;63149;48.086;-1.606;2023-08-07T11:35:29;25.40;99.90
39277;DHT22;63149;48.086;-1.606;2023-08-07T11:37:57;25.60;99.90
39277;DHT22;63149;48.086;-1.606;2023-08-07T11:40:24;25.60;99.90
39277;DHT22;63149;48.086;-1.606;2023-08-07T11:42:51;25.60;99.90
39277;DHT22;63149;48.086;-1.606;2023-08-07T11:45:18;25.70;99.90
39277;DHT22;63149;48.086;-1.606;2023-08-07T11:47:45;25.70;99.90
39277;DHT22;63149;48.086;-1.606;2023-08-07T11:50:12;25.80;99.90
39277;DHT22;63149;48.086;-1.606;2023-08-07T11:52:39;25.80;99.90
39277;DHT22;63149;48.086;-1.606;2023-08-07T11:55:08;25.80;99.90
39277;DHT22;63149;48.086;-1.606;2023-08-07T11:57:38;25.70;99.90
39277;DHT22;63149;48.086;-1.606;2023-08-07T12:00:07;25.60;99.90
39277;DHT22;63149;48.086;-1.606;2023-08-07T12:02:41;25.60;99.90
39277;DHT22;63149;48.086;-1.606;2023-08-07T12:05:10;25.50;99.90
39277;DHT22;63149;48.086;-1.606;2023-08-07T12:07:38;25.40;99.90
39277;DHT22;63149;48.086;-1.606;2023-08-07T12:10:09;25.30;99.90
39277;DHT22;63149;48.086;-1.606;2023-08-07T12:12:36;25.20;99.90
39277;DHT22;63149;48.086;-1.606;2023-08-07T12:15:07;25.10;99.90
39277;DHT22;63149;48.086;-1.606;2023-08-07T12:17:35;25.10;99.90
39277;DHT22;63149;48.086;-1.606;2023-08-07T12:20:04;25.10;99.90
39277;DHT22;63149;48.086;-1.606;2023-08-07T12:22:33;24.90;99.90
39277;DHT22;63149;48.086;-1.606;2023-08-07T12:25:00;24.90;99.90
39277;DHT22;63149;48.086;-1.606;2023-08-07T12:27:28;24.70;99.90
39277;DHT22;63149;48.086;-1.606;2023-08-07T12:29:55;24.70;99.90
39277;DHT22;63149;48.086;-1.606;2023-08-07T12:32:22;24.60;99.90
39277;DHT22;63149;48.086;-1.606;2023-08-07T12:34:49;24.40;99.90
39277;DHT22;63149;48.086;-1.606;2023-08-07T12:37:16;24.40;99.90
39277;DHT22;63149;48.086;-1.606;2023-08-07T12:39:43;24.30;99.90
39277;DHT22;63149;48.086;-1.606;2023-08-07T12:42:10;24.30;99.90
39277;DHT22;63149;48.086;-1.606;2023-08-07T12:44:38;24.30;99.90
39277;DHT22;63149;48.086;-1.606;2023-08-07T12:47:05;24.40;99.90
39277;DHT22;63149;48.086;-1.606;2023-08-07T12:49:32;24.30;99.90
39277;DHT22;63149;48.086;-1.606;2023-08-07T12:51:59;24.30;99.90
39277;DHT22;63149;48.086;-1.606;2023-08-07T12:54:26;24.30;99.90
39277;DHT22;63149;48.086;-1.606;2023-08-07T12:56:53;24.20;99.90
39277;DHT22;63149;48.086;-1.606;2023-08-07T12:59:20;24.20;99.90
39277;DHT22;63149;48.086;-1.606;2023-08-07T13:01:49;24.20;99.90
39277;DHT22;63149;48.086;-1.606;2023-08-07T13:04:18;24.10;99.90
39277;DHT22;63149;48.086;-1.606;2023-08-07T13:06:45;24.10;99.90
39277;DHT22;63149;48.086;-1.606;2023-08-07T13:09:12;24.10;99.90
39277;DHT22;63149;48.086;-1.606;2023-08-07T13:11:39;24.10;99.90
39277;DHT22;63149;48.086;-1.606;2023-08-07T13:14:06;24.10;99.90
39277;DHT22;63149;48.086;-1.606;2023-08-07T13:16:33;24.10;99.90
39277;DHT22;63149;48.086;-1.606;2023-08-07T13:19:01;24.10;99.90
39277;DHT22;63149;48.086;-1.606;2023-08-07T13:21:28;24.10;99.90
39277;DHT22;63149;48.086;-1.606;2023-08-07T13:23:55;24.10;99.90
39277;DHT22;63149;48.086;-1.606;2023-08-07T13:26:22;24.10;99.90
39277;DHT22;63149;48.086;-1.606;2023-08-07T13:28:49;24.00;99.90
39277;DHT22;63149;48.086;-1.606;2023-08-07T13:31:16;23.90;99.90
39277;DHT22;63149;48.086;-1.606;2023-08-07T13:33:43;23.90;99.90
39277;DHT22;63149;48.086;-1.606;2023-08-07T13:36:11;23.90;99.90
39277;DHT22;63149;48.086;-1.606;2023-08-07T13:38:38;23.90;99.90
39277;DHT22;63149;48.086;-1.606;2023-08-07T13:41:05;23.90;99.90
39277;DHT22;63149;48.086;-1.606;2023-08-07T13:43:32;23.80;99.90
39277;DHT22;63149;48.086;-1.606;2023-08-07T13:45:59;23.90;99.90
39277;DHT22;63149;48.086;-1.606;2023-08-07T13:48:26;23.80;99.90
39277;DHT22;63149;48.086;-1.606;2023-08-07T13:50:53;23.70;99.90
39277;DHT22;63149;48.086;-1.606;2023-08-07T13:53:22;23.60;99.90
39277;DHT22;63149;48.086;-1.606;2023-08-07T13:55:54;23.60;99.90
39277;DHT22;63149;48.086;-1.606;2023-08-07T13:58:21;23.60;99.90
39277;DHT22;63149;48.086;-1.606;2023-08-07T14:00:48;23.50;99.90
39277;DHT22;63149;48.086;-1.606;2023-08-07T14:03:15;23.50;99.90
39277;DHT22;63149;48.086;-1.606;2023-08-07T14:05:42;23.50;99.90
39277;DHT22;63149;48.086;-1.606;2023-08-07T14:08:09;23.30;99.90
39277;DHT22;63149;48.086;-1.606;2023-08-07T14:10:38;23.30;99.90
39277;DHT22;63149;48.086;-1.606;2023-08-07T14:13:06;23.30;99.90
39277;DHT22;63149;48.086;-1.606;2023-08-07T14:15:33;23.30;99.90
39277;DHT22;63149;48.086;-1.606;2023-08-07T14:18:00;23.30;99.90
39277;DHT22;63149;48.086;-1.606;2023-08-07T14:20:27;23.30;99.90
39277;DHT22;63149;48.086;-1.606;2023-08-07T14:22:54;23.40;99.90
39277;DHT22;63149;48.086;-1.606;2023-08-07T14:25:21;23.40;99.90
39277;DHT22;63149;48.086;-1.606;2023-08-07T14:27:49;23.50;99.90
39277;DHT22;63149;48.086;-1.606;2023-08-07T14:30:16;23.50;99.90
39277;DHT22;63149;48.086;-1.606;2023-08-07T14:32:43;23.50;99.90
39277;DHT22;63149;48.086;-1.606;2023-08-07T14:35:12;23.50;99.90
39277;DHT22;63149;48.086;-1.606;2023-08-07T14:37:39;23.50;99.90
39277;DHT22;63149;48.086;-1.606;2023-08-07T14:40:07;23.50;99.90
39277;DHT22;63149;48.086;-1.606;2023-08-07T14:42:34;23.40;99.90
39277;DHT22;63149;48.086;-1.606;2023-08-07T14:45:03;23.30;99.90
39277;DHT22;63149;48.086;-1.606;2023-08-07T14:47:30;23.40;99.90
39277;DHT22;63149;48.086;-1.606;2023-08-07T14:49:57;23.40;99.90
39277;DHT22;63149;48.086;-1.606;2023-08-07T14:52:24;23.30;99.90
39277;DHT22;63149;48.086;-1.606;2023-08-07T14:54:51;23.30;99.90
39277;DHT22;63149;48.086;-1.606;2023-08-07T14:57:18;23.20;99.90
39277;DHT22;63149;48.086;-1.606;2023-08-07T14:59:45;23.20;99.90
39277;DHT22;63149;48.086;-1.606;2023-08-07T15:02:14;23.20;99.90
39277;DHT22;63149;48.086;-1.606;2023-08-07T15:04:40;23.20;99.90
39277;DHT22;63149;48.086;-1.606;2023-08-07T15:07:07;23.20;99.90
39277;DHT22;63149;48.086;-1.606;2023-08-07T15:09:34;23.20;99.90
39277;DHT22;63149;48.086;-1.606;2023-08-07T15:12:01;23.20;99.90
39277;DHT22;63149;48.086;-1.606;2023-08-07T15:14:30;23.20;99.90
39277;DHT22;63149;48.086;-1.606;2023-08-07T15:16:56;23.10;99.90
39277;DHT22;63149;48.086;-1.606;2023-08-07T15:19:25;23.10;99.90
39277;DHT22;63149;48.086;-1.606;2023-08-07T15:21:52;23.10;99.90
39277;DHT22;63149;48.086;-1.606;2023-08-07T15:24:19;23.10;99.90
39277;DHT22;63149;48.086;-1.606;2023-08-07T15:26:46;23.00;99.90
39277;DHT22;63149;48.086;-1.606;2023-08-07T15:29:13;23.00;99.90
39277;DHT22;63149;48.086;-1.606;2023-08-07T15:31:40;23.00;99.90
39277;DHT22;63149;48.086;-1.606;2023-08-07T15:34:07;23.00;99.90
39277;DHT22;63149;48.086;-1.606;2023-08-07T15:36:35;23.00;99.90
39277;DHT22;63149;48.086;-1.606;2023-08-07T15:39:02;23.00;99.90
39277;DHT22;63149;48.086;-1.606;2023-08-07T15:41:29;23.00;99.90
39277;DHT22;63149;48.086;-1.606;2023-08-07T15:43:56;23.00;99.90
39277;DHT22;63149;48.086;-1.606;2023-08-07T15:46:23;23.10;99.90
39277;DHT22;63149;48.086;-1.606;2023-08-07T15:48:50;23.10;99.90
39277;DHT22;63149;48.086;-1.606;2023-08-07T15:51:17;23.20;99.90
39277;DHT22;63149;48.086;-1.606;2023-08-07T15:53:46;23.20;99.90
39277;DHT22;63149;48.086;-1.606;2023-08-07T15:56:13;23.20;99.90
39277;DHT22;63149;48.086;-1.606;2023-08-07T15:58:40;23.20;99.90
39277;DHT22;63149;48.086;-1.606;2023-08-07T16:01:07;23.20;99.90
39277;DHT22;63149;48.086;-1.606;2023-08-07T16:03:34;23.20;99.90
39277;DHT22;63149;48.086;-1.606;2023-08-07T16:06:02;23.20;99.90
39277;DHT22;63149;48.086;-1.606;2023-08-07T16:08:29;23.30;99.90
39277;DHT22;63149;48.086;-1.606;2023-08-07T16:10:57;23.40;99.90
39277;DHT22;63149;48.086;-1.606;2023-08-07T16:13:24;23.30;99.90
39277;DHT22;63149;48.086;-1.606;2023-08-07T16:15:51;23.20;99.90
39277;DHT22;63149;48.086;-1.606;2023-08-07T16:18:17;23.20;99.90
39277;DHT22;63149;48.086;-1.606;2023-08-07T16:20:44;23.20;99.90
39277;DHT22;63149;48.086;-1.606;2023-08-07T16:23:11;23.10;99.90
39277;DHT22;63149;48.086;-1.606;2023-08-07T16:25:38;23.10;99.90
39277;DHT22;63149;48.086;-1.606;2023-08-07T16:28:07;23.10;99.90
39277;DHT22;63149;48.086;-1.606;2023-08-07T16:30:34;23.10;99.90
39277;DHT22;63149;48.086;-1.606;2023-08-07T16:33:01;23.00;99.90
39277;DHT22;63149;48.086;-1.606;2023-08-07T16:35:27;23.00;99.90
39277;DHT22;63149;48.086;-1.606;2023-08-07T16:37:54;22.90;99.90
39277;DHT22;63149;48.086;-1.606;2023-08-07T16:40:22;22.90;99.90
39277;DHT22;63149;48.086;-1.606;2023-08-07T16:42:48;22.80;99.90
39277;DHT22;63149;48.086;-1.606;2023-08-07T16:45:17;22.80;99.90
39277;DHT22;63149;48.086;-1.606;2023-08-07T16:47:45;22.80;99.90
39277;DHT22;63149;48.086;-1.606;2023-08-07T16:50:12;22.70;99.90
39277;DHT22;63149;48.086;-1.606;2023-08-07T16:52:39;22.70;99.90
39277;DHT22;63149;48.086;-1.606;2023-08-07T16:55:07;22.60;99.90
39277;DHT22;63149;48.086;-1.606;2023-08-07T16:57:34;22.60;99.90
39277;DHT22;63149;48.086;-1.606;2023-08-07T17:00:01;22.60;99.90
39277;DHT22;63149;48.086;-1.606;2023-08-07T17:02:31;22.60;99.90
39277;DHT22;63149;48.086;-1.606;2023-08-07T17:04:58;22.60;99.90
39277;DHT22;63149;48.086;-1.606;2023-08-07T17:07:24;22.60;99.90
39277;DHT22;63149;48.086;-1.606;2023-08-07T17:09:51;22.70;99.90
39277;DHT22;63149;48.086;-1.606;2023-08-07T17:12:18;22.70;99.90
39277;DHT22;63149;48.086;-1.606;2023-08-07T17:14:45;22.70;99.90
39277;DHT22;63149;48.086;-1.606;2023-08-07T17:17:12;22.70;99.90
39277;DHT22;63149;48.086;-1.606;2023-08-07T17:19:40;22.60;99.90
39277;DHT22;63149;48.086;-1.606;2023-08-07T17:22:07;22.60;99.90
39277;DHT22;63149;48.086;-1.606;2023-08-07T17:24:34;22.60;99.90
39277;DHT22;63149;48.086;-1.606;2023-08-07T17:27:01;22.50;99.90
39277;DHT22;63149;48.086;-1.606;2023-08-07T17:29:28;22.50;99.90
39277;DHT22;63149;48.086;-1.606;2023-08-07T17:31:55;22.50;99.90
39277;DHT22;63149;48.086;-1.606;2023-08-07T17:34:23;22.40;99.90
39277;DHT22;63149;48.086;-1.606;2023-08-07T17:36:52;22.40;99.90
39277;DHT22;63149;48.086;-1.606;2023-08-07T17:39:18;22.40;99.90
39277;DHT22;63149;48.086;-1.606;2023-08-07T17:41:45;22.40;99.90
39277;DHT22;63149;48.086;-1.606;2023-08-07T17:44:13;22.30;99.90
39277;DHT22;63149;48.086;-1.606;2023-08-07T17:46:40;22.30;99.90
39277;DHT22;63149;48.086;-1.606;2023-08-07T17:49:07;22.30;99.90
39277;DHT22;63149;48.086;-1.606;2023-08-07T17:51:34;22.30;99.90
39277;DHT22;63149;48.086;-1.606;2023-08-07T17:54:02;22.20;99.90
39277;DHT22;63149;48.086;-1.606;2023-08-07T17:56:29;22.20;99.90
39277;DHT22;63149;48.086;-1.606;2023-08-07T17:58:58;22.20;99.90
39277;DHT22;63149;48.086;-1.606;2023-08-07T18:01:25;22.10;99.90
39277;DHT22;63149;48.086;-1.606;2023-08-07T18:03:55;22.10;99.90
39277;DHT22;63149;48.086;-1.606;2023-08-07T18:06:25;22.10;99.90
39277;DHT22;63149;48.086;-1.606;2023-08-07T18:08:52;22.00;99.90
39277;DHT22;63149;48.086;-1.606;2023-08-07T18:11:20;22.00;99.90
39277;DHT22;63149;48.086;-1.606;2023-08-07T18:13:47;22.00;99.90
39277;DHT22;63149;48.086;-1.606;2023-08-07T18:16:15;21.90;99.90
39277;DHT22;63149;48.086;-1.606;2023-08-07T18:18:42;21.90;99.90
39277;DHT22;63149;48.086;-1.606;2023-08-07T18:21:10;21.90;99.90
39277;DHT22;63149;48.086;-1.606;2023-08-07T18:23:37;21.80;99.90
39277;DHT22;63149;48.086;-1.606;2023-08-07T18:26:04;21.90;99.90
39277;DHT22;63149;48.086;-1.606;2023-08-07T18:28:32;21.80;99.90
39277;DHT22;63149;48.086;-1.606;2023-08-07T18:30:59;21.80;99.90
39277;DHT22;63149;48.086;-1.606;2023-08-07T18:33:26;21.70;99.90
39277;DHT22;63149;48.086;-1.606;2023-08-07T18:35:53;21.70;99.90
39277;DHT22;63149;48.086;-1.606;2023-08-07T18:38:25;21.70;99.90
39277;DHT22;63149;48.086;-1.606;2023-08-07T18:40:52;21.60;99.90
39277;DHT22;63149;48.086;-1.606;2023-08-07T18:43:18;21.60;99.90
39277;DHT22;63149;48.086;-1.606;2023-08-07T18:45:47;21.60;99.90
39277;DHT22;63149;48.086;-1.606;2023-08-07T18:48:14;21.60;99.90
39277;DHT22;63149;48.086;-1.606;2023-08-07T18:50:41;21.50;99.90
39277;DHT22;63149;48.086;-1.606;2023-08-07T18:53:08;21.50;99.90
39277;DHT22;63149;48.086;-1.606;2023-08-07T18:55:35;21.60;99.90
39277;DHT22;63149;48.086;-1.606;2023-08-07T18:58:02;21.60;99.90
39277;DHT22;63149;48.086;-1.606;2023-08-07T19:00:29;21.60;99.90
39277;DHT22;63149;48.086;-1.606;2023-08-07T19:02:57;21.60;99.90
39277;DHT22;63149;48.086;-1.606;2023-08-07T19:05:24;21.50;99.90
39277;DHT22;63149;48.086;-1.606;2023-08-07T19:07:51;21.50;99.90
39277;DHT22;63149;48.086;-1.606;2023-08-07T19:10:18;21.50;99.90
39277;DHT22;63149;48.086;-1.606;2023-08-07T19:12:46;21.40;99.90
39277;DHT22;63149;48.086;-1.606;2023-08-07T19:15:13;21.40;99.90
39277;DHT22;63149;48.086;-1.606;2023-08-07T19:17:42;21.30;99.90
39277;DHT22;63149;48.086;-1.606;2023-08-07T19:20:11;21.30;99.90
39277;DHT22;63149;48.086;-1.606;2023-08-07T19:22:38;21.10;99.90
39277;DHT22;63149;48.086;-1.606;2023-08-07T19:25:07;21.10;99.90
39277;DHT22;63149;48.086;-1.606;2023-08-07T19:27:34;21.00;99.90
39277;DHT22;63149;48.086;-1.606;2023-08-07T19:30:01;21.00;99.90
39277;DHT22;63149;48.086;-1.606;2023-08-07T19:32:28;21.00;99.90
39277;DHT22;63149;48.086;-1.606;2023-08-07T19:34:54;21.00;99.90
39277;DHT22;63149;48.086;-1.606;2023-08-07T19:37:23;20.90;99.90
39277;DHT22;63149;48.086;-1.606;2023-08-07T19:39:51;21.00;99.90
39277;DHT22;63149;48.086;-1.606;2023-08-07T19:42:18;20.90;99.90
39277;DHT22;63149;48.086;-1.606;2023-08-07T19:44:45;20.80;99.90
39277;DHT22;63149;48.086;-1.606;2023-08-07T19:47:12;20.80;99.90
39277;DHT22;63149;48.086;-1.606;2023-08-07T19:49:39;20.70;99.90
39277;DHT22;63149;48.086;-1.606;2023-08-07T19:52:06;20.70;99.90
39277;DHT22;63149;48.086;-1.606;2023-08-07T19:54:35;20.60;99.90
39277;DHT22;63149;48.086;-1.606;2023-08-07T19:57:02;20.60;99.90
39277;DHT22;63149;48.086;-1.606;2023-08-07T19:59:29;20.50;99.90
39277;DHT22;63149;48.086;-1.606;2023-08-07T20:01:56;20.50;99.90
39277;DHT22;63149;48.086;-1.606;2023-08-07T20:04:23;20.50;99.90
39277;DHT22;63149;48.086;-1.606;2023-08-07T20:06:50;20.50;99.90
39277;DHT22;63149;48.086;-1.606;2023-08-07T20:09:16;20.40;99.90
39277;DHT22;63149;48.086;-1.606;2023-08-07T20:11:45;20.40;99.90
39277;DHT22;63149;48.086;-1.606;2023-08-07T20:14:12;20.30;99.90
39277;DHT22;63149;48.086;-1.606;2023-08-07T20:16:39;20.20;99.90
39277;DHT22;63149;48.086;-1.606;2023-08-07T20:19:06;20.20;99.90